sensor_id;sensor_type;location;lat;lon;timestamp;temperature;humidity
57552;DHT22;43379;48.160;14.036;2023-08-01T00:00:34;21.70;99.90
57552;DHT22;43379;48.160;14.036;2023-08-01T00:03:00;21.70;99.90
57552;DHT22;43379;48.160;14.036;2023-08-01T00:05:25;21.70;99.90
57552;DHT22;43379;48.160;14.036;2023-08-01T00:07:52;21.60;99.90
57552;DHT22;43379;48.160;14.036;2023-08-01T00:10:18;21.60;99.90
57552;DHT22;43379;48.160;14.036;2023-08-01T00:12:43;21.60;99.90
57552;DHT22;43379;48.160;14.036;2023-08-01T00:15:09;21.60;99.90
57552;DHT22;43379;48.160;14.036;2023-08-01T00:17:35;21.60;99.90
57552;DHT22;43379;48.160;14.036;2023-08-01T00:20:04;21.60;99.90
57552;DHT22;43379;48.160;14.036;2023-08-01T00:22:30;21.50;99.90
57552;DHT22;43379;48.160;14.036;2023-08-01T00:24:55;21.50;99.90
57552;DHT22;43379;48.160;14.036;2023-08-01T00:27:21;21.50;99.90
57552;DHT22;43379;48.160;14.036;2023-08-01T00:29:47;21.60;99.90
57552;DHT22;43379;48.160;14.036;2023-08-01T00:32:12;21.50;99.90
57552;DHT22;43379;48.160;14.036;2023-08-01T00:34:38;21.50;99.90
57552;DHT22;43379;48.160;14.036;2023-08-01T00:37:04;21.50;99.90
57552;DHT22;43379;48.160;14.036;2023-08-01T00:39:30;21.50;99.90
57552;DHT22;43379;48.160;14.036;2023-08-01T00:41:56;21.50;99.90
57552;DHT22;43379;48.160;14.036;2023-08-01T00:44:22;21.50;99.90
57552;DHT22;43379;48.160;14.036;2023-08-01T00:46:47;21.50;99.90
57552;DHT22;43379;48.160;14.036;2023-08-01T00:49:14;21.50;99.90
57552;DHT22;43379;48.160;14.036;2023-08-01T00:51:40;21.40;99.90
57552;DHT22;43379;48.160;14.036;2023-08-01T00:54:06;21.50;99.90
57552;DHT22;43379;48.160;14.036;2023-08-01T00:56:32;21.50;99.90
57552;DHT22;43379;48.160;14.036;2023-08-01T00:58:58;21.50;99.90
57552;DHT22;43379;48.160;14.036;2023-08-01T01:01:24;21.50;99.90
57552;DHT22;43379;48.160;14.036;2023-08-01T01:03:50;21.50;99.90
57552;DHT22;43379;48.160;14.036;2023-08-01T01:06:32;21.50;99.90
57552;DHT22;43379;48.160;14.036;2023-08-01T01:08:59;21.50;99.90
57552;DHT22;43379;48.160;14.036;2023-08-01T01:11:25;21.60;99.90
57552;DHT22;43379;48.160;14.036;2023-08-01T01:13:51;21.50;99.90
57552;DHT22;43379;48.160;14.036;2023-08-01T01:16:20;21.50;99.90
57552;DHT22;43379;48.160;14.036;2023-08-01T01:18:45;21.50;99.90
57552;DHT22;43379;48.160;14.036;2023-08-01T01:21:11;21.50;99.90
57552;DHT22;43379;48.160;14.036;2023-08-01T01:23:38;21.50;99.90
57552;DHT22;43379;48.160;14.036;2023-08-01T01:26:04;21.50;99.90
57552;DHT22;43379;48.160;14.036;2023-08-01T01:28:32;21.50;99.90
57552;DHT22;43379;48.160;14.036;2023-08-01T01:30:58;21.50;99.90
57552;DHT22;43379;48.160;14.036;2023-08-01T01:33:25;21.60;99.90
57552;DHT22;43379;48.160;14.036;2023-08-01T01:35:51;21.60;99.90
57552;DHT22;43379;48.160;14.036;2023-08-01T01:38:17;21.50;99.90
57552;DHT22;43379;48.160;14.036;2023-08-01T01:40:42;21.60;99.90
57552;DHT22;43379;48.160;14.036;2023-08-01T01:43:08;21.60;99.90
57552;DHT22;43379;48.160;14.036;2023-08-01T01:45:34;21.60;99.90
57552;DHT22;43379;48.160;14.036;2023-08-01T01:48:00;21.60;99.90
57552;DHT22;43379;48.160;14.036;2023-08-01T01:50:26;21.50;99.90
57552;DHT22;43379;48.160;14.036;2023-08-01T01:52:51;21.40;99.90
57552;DHT22;43379;48.160;14.036;2023-08-01T01:55:17;21.40;99.90
57552;DHT22;43379;48.160;14.036;2023-08-01T01:57:43;21.40;99.90
57552;DHT22;43379;48.160;14.036;2023-08-01T02:00:09;21.30;99.90
57552;DHT22;43379;48.160;14.036;2023-08-01T02:02:36;21.30;99.90
57552;DHT22;43379;48.160;14.036;2023-08-01T02:05:02;21.30;99.90
57552;DHT22;43379;48.160;14.036;2023-08-01T02:07:29;21.30;99.90
57552;DHT22;43379;48.160;14.036;2023-08-01T02:09:55;21.30;99.90
57552;DHT22;43379;48.160;14.036;2023-08-01T02:12:20;21.30;99.90
57552;DHT22;43379;48.160;14.036;2023-08-01T02:14:46;21.40;99.90
57552;DHT22;43379;48.160;14.036;2023-08-01T02:17:12;21.30;99.90
57552;DHT22;43379;48.160;14.036;2023-08-01T02:19:37;21.30;99.90
57552;DHT22;43379;48.160;14.036;2023-08-01T02:22:03;21.30;99.90
57552;DHT22;43379;48.160;14.036;2023-08-01T02:24:29;21.30;99.90
57552;DHT22;43379;48.160;14.036;2023-08-01T02:26:54;21.30;99.90
57552;DHT22;43379;48.160;14.036;2023-08-01T02:29:20;21.30;99.90
57552;DHT22;43379;48.160;14.036;2023-08-01T02:31:45;21.30;99.90
57552;DHT22;43379;48.160;14.036;2023-08-01T02:34:11;21.30;99.90
57552;DHT22;43379;48.160;14.036;2023-08-01T02:36:37;21.30;99.90
57552;DHT22;43379;48.160;14.036;2023-08-01T02:39:02;21.20;99.90
57552;DHT22;43379;48.160;14.036;2023-08-01T02:41:28;21.30;99.90
57552;DHT22;43379;48.160;14.036;2023-08-01T02:43:54;21.30;99.90
57552;DHT22;43379;48.160;14.036;2023-08-01T02:46:19;21.30;99.90
57552;DHT22;43379;48.160;14.036;2023-08-01T02:48:45;21.10;99.90
57552;DHT22;43379;48.160;14.036;2023-08-01T02:51:11;21.20;99.90
57552;DHT22;43379;48.160;14.036;2023-08-01T02:53:37;21.20;99.90
57552;DHT22;43379;48.160;14.036;2023-08-01T02:56:05;21.20;99.90
57552;DHT22;43379;48.160;14.036;2023-08-01T02:58:32;21.20;99.90
57552;DHT22;43379;48.160;14.036;2023-08-01T03:00:58;21.20;99.90
57552;DHT22;43379;48.160;14.036;2023-08-01T03:03:24;21.10;99.90
57552;DHT22;43379;48.160;14.036;2023-08-01T03:05:49;21.10;99.90
57552;DHT22;43379;48.160;14.036;2023-08-01T03:08:15;21.10;99.90
57552;DHT22;43379;48.160;14.036;2023-08-01T03:10:40;21.20;99.90
57552;DHT22;43379;48.160;14.036;2023-08-01T03:13:06;21.20;99.90
57552;DHT22;43379;48.160;14.036;2023-08-01T03:15:32;21.10;99.90
57552;DHT22;43379;48.160;14.036;2023-08-01T03:17:58;21.10;99.90
57552;DHT22;43379;48.160;14.036;2023-08-01T03:20:23;21.10;99.90
57552;DHT22;43379;48.160;14.036;2023-08-01T03:22:49;21.10;99.90
57552;DHT22;43379;48.160;14.036;2023-08-01T03:25:15;21.20;99.90
57552;DHT22;43379;48.160;14.036;2023-08-01T03:27:40;21.10;99.90
57552;DHT22;43379;48.160;14.036;2023-08-01T03:30:06;21.10;99.90
57552;DHT22;43379;48.160;14.036;2023-08-01T03:32:35;21.20;99.90
57552;DHT22;43379;48.160;14.036;2023-08-01T03:35:03;21.20;99.90
57552;DHT22;43379;48.160;14.036;2023-08-01T03:37:29;21.20;99.90
57552;DHT22;43379;48.160;14.036;2023-08-01T03:39:54;21.10;99.90
57552;DHT22;43379;48.160;14.036;2023-08-01T03:42:20;21.20;99.90
57552;DHT22;43379;48.160;14.036;2023-08-01T03:44:46;21.10;99.90
57552;DHT22;43379;48.160;14.036;2023-08-01T03:47:11;21.10;99.90
57552;DHT22;43379;48.160;14.036;2023-08-01T03:49:37;21.10;99.90
57552;DHT22;43379;48.160;14.036;2023-08-01T03:52:05;21.20;99.90
57552;DHT22;43379;48.160;14.036;2023-08-01T03:54:30;21.20;99.90
57552;DHT22;43379;48.160;14.036;2023-08-01T03:56:56;21.20;99.90
57552;DHT22;43379;48.160;14.036;2023-08-01T03:59:22;21.20;99.90
57552;DHT22;43379;48.160;14.036;2023-08-01T04:01:48;21.20;99.90
57552;DHT22;43379;48.160;14.036;2023-08-01T04:04:14;21.10;99.90
57552;DHT22;43379;48.160;14.036;2023-08-01T04:06:39;21.20;99.90
57552;DHT22;43379;48.160;14.036;2023-08-01T04:09:05;21.20;99.90
57552;DHT22;43379;48.160;14.036;2023-08-01T04:11:34;21.20;99.90
57552;DHT22;43379;48.160;14.036;2023-08-01T04:14:00;21.20;99.90
57552;DHT22;43379;48.160;14.036;2023-08-01T04:16:25;21.30;99.90
57552;DHT22;43379;48.160;14.036;2023-08-01T04:18:51;21.20;99.90
57552;DHT22;43379;48.160;14.036;2023-08-01T04:21:17;21.20;99.90
57552;DHT22;43379;48.160;14.036;2023-08-01T04:23:43;21.30;99.90
57552;DHT22;43379;48.160;14.036;2023-08-01T04:26:09;21.20;99.90
57552;DHT22;43379;48.160;14.036;2023-08-01T04:28:35;21.20;99.90
57552;DHT22;43379;48.160;14.036;2023-08-01T04:31:01;21.20;99.90
57552;DHT22;43379;48.160;14.036;2023-08-01T04:33:27;21.20;99.90
57552;DHT22;43379;48.160;14.036;2023-08-01T04:35:53;21.10;99.90
57552;DHT22;43379;48.160;14.036;2023-08-01T04:38:19;21.10;99.90
57552;DHT22;43379;48.160;14.036;2023-08-01T04:40:44;21.10;99.90
57552;DHT22;43379;48.160;14.036;2023-08-01T04:43:11;21.10;99.90
57552;DHT22;43379;48.160;14.036;2023-08-01T04:45:37;21.10;99.90
57552;DHT22;43379;48.160;14.036;2023-08-01T04:48:02;21.00;99.90
57552;DHT22;43379;48.160;14.036;2023-08-01T04:50:28;20.90;99.90
57552;DHT22;43379;48.160;14.036;2023-08-01T04:52:54;20.90;99.90
57552;DHT22;43379;48.160;14.036;2023-08-01T04:55:19;20.90;99.90
57552;DHT22;43379;48.160;14.036;2023-08-01T04:57:45;21.00;99.90
57552;DHT22;43379;48.160;14.036;2023-08-01T05:00:11;21.00;99.90
57552;DHT22;43379;48.160;14.036;2023-08-01T05:02:38;21.10;99.90
57552;DHT22;43379;48.160;14.036;2023-08-01T05:05:04;21.10;99.90
57552;DHT22;43379;48.160;14.036;2023-08-01T05:07:30;21.00;99.90
57552;DHT22;43379;48.160;14.036;2023-08-01T05:09:56;21.10;99.90
57552;DHT22;43379;48.160;14.036;2023-08-01T05:12:21;21.00;99.90
57552;DHT22;43379;48.160;14.036;2023-08-01T05:14:47;21.00;99.90
57552;DHT22;43379;48.160;14.036;2023-08-01T05:17:13;21.10;99.90
57552;DHT22;43379;48.160;14.036;2023-08-01T05:19:38;21.10;99.90
57552;DHT22;43379;48.160;14.036;2023-08-01T05:22:04;21.10;99.90
57552;DHT22;43379;48.160;14.036;2023-08-01T05:24:30;21.10;99.90
57552;DHT22;43379;48.160;14.036;2023-08-01T05:26:56;21.20;99.90
57552;DHT22;43379;48.160;14.036;2023-08-01T05:29:21;21.10;99.90
57552;DHT22;43379;48.160;14.036;2023-08-01T05:31:47;21.10;99.90
57552;DHT22;43379;48.160;14.036;2023-08-01T05:34:13;21.20;99.90
57552;DHT22;43379;48.160;14.036;2023-08-01T05:36:38;21.20;99.90
57552;DHT22;43379;48.160;14.036;2023-08-01T05:39:04;21.20;99.90
57552;DHT22;43379;48.160;14.036;2023-08-01T05:41:30;21.20;99.90
57552;DHT22;43379;48.160;14.036;2023-08-01T05:43:56;21.10;99.90
57552;DHT22;43379;48.160;14.036;2023-08-01T05:46:22;21.10;99.90
57552;DHT22;43379;48.160;14.036;2023-08-01T05:48:48;21.10;99.90
57552;DHT22;43379;48.160;14.036;2023-08-01T05:51:13;21.00;99.90
57552;DHT22;43379;48.160;14.036;2023-08-01T05:53:39;21.00;99.90
57552;DHT22;43379;48.160;14.036;2023-08-01T05:56:05;21.00;99.90
57552;DHT22;43379;48.160;14.036;2023-08-01T05:58:31;20.90;99.90
57552;DHT22;43379;48.160;14.036;2023-08-01T06:00:57;21.00;99.90
57552;DHT22;43379;48.160;14.036;2023-08-01T06:03:22;21.00;99.90
57552;DHT22;43379;48.160;14.036;2023-08-01T06:05:48;21.00;99.90
57552;DHT22;43379;48.160;14.036;2023-08-01T06:08:14;21.00;99.90
57552;DHT22;43379;48.160;14.036;2023-08-01T06:10:41;21.10;99.90
57552;DHT22;43379;48.160;14.036;2023-08-01T06:13:07;21.00;99.90
57552;DHT22;43379;48.160;14.036;2023-08-01T06:15:33;21.00;99.90
57552;DHT22;43379;48.160;14.036;2023-08-01T06:17:59;21.10;99.90
57552;DHT22;43379;48.160;14.036;2023-08-01T06:20:25;21.00;99.90
57552;DHT22;43379;48.160;14.036;2023-08-01T06:22:50;21.00;99.90
57552;DHT22;43379;48.160;14.036;2023-08-01T06:25:16;21.00;99.90
57552;DHT22;43379;48.160;14.036;2023-08-01T06:27:41;20.90;99.90
57552;DHT22;43379;48.160;14.036;2023-08-01T06:30:07;20.90;99.90
57552;DHT22;43379;48.160;14.036;2023-08-01T06:32:33;20.90;99.90
57552;DHT22;43379;48.160;14.036;2023-08-01T06:34:59;20.90;99.90
57552;DHT22;43379;48.160;14.036;2023-08-01T06:37:24;20.80;99.90
57552;DHT22;43379;48.160;14.036;2023-08-01T06:39:50;20.90;99.90
57552;DHT22;43379;48.160;14.036;2023-08-01T06:42:16;20.90;99.90
57552;DHT22;43379;48.160;14.036;2023-08-01T06:44:41;20.90;99.90
57552;DHT22;43379;48.160;14.036;2023-08-01T06:47:07;21.00;99.90
57552;DHT22;43379;48.160;14.036;2023-08-01T06:49:33;21.00;99.90
57552;DHT22;43379;48.160;14.036;2023-08-01T06:51:59;21.00;99.90
57552;DHT22;43379;48.160;14.036;2023-08-01T06:54:24;21.00;99.90
57552;DHT22;43379;48.160;14.036;2023-08-01T06:56:50;21.00;99.90
57552;DHT22;43379;48.160;14.036;2023-08-01T06:59:16;21.00;99.90
57552;DHT22;43379;48.160;14.036;2023-08-01T07:01:43;21.00;99.90
57552;DHT22;43379;48.160;14.036;2023-08-01T07:04:10;21.00;99.90
57552;DHT22;43379;48.160;14.036;2023-08-01T07:06:35;20.90;99.90
57552;DHT22;43379;48.160;14.036;2023-08-01T07:09:01;20.90;99.90
57552;DHT22;43379;48.160;14.036;2023-08-01T07:11:27;20.90;99.90
57552;DHT22;43379;48.160;14.036;2023-08-01T07:13:53;21.00;99.90
57552;DHT22;43379;48.160;14.036;2023-08-01T07:16:18;21.00;99.90
57552;DHT22;43379;48.160;14.036;2023-08-01T07:18:44;21.00;99.90
57552;DHT22;43379;48.160;14.036;2023-08-01T07:21:10;21.00;99.90
57552;DHT22;43379;48.160;14.036;2023-08-01T07:23:35;21.00;99.90
57552;DHT22;43379;48.160;14.036;2023-08-01T07:26:01;21.00;99.90
57552;DHT22;43379;48.160;14.036;2023-08-01T07:28:27;21.10;99.90
57552;DHT22;43379;48.160;14.036;2023-08-01T07:31:04;21.10;99.90
57552;DHT22;43379;48.160;14.036;2023-08-01T07:33:31;21.20;99.90
57552;DHT22;43379;48.160;14.036;2023-08-01T07:35:57;21.20;99.90
57552;DHT22;43379;48.160;14.036;2023-08-01T07:38:23;21.20;99.90
57552;DHT22;43379;48.160;14.036;2023-08-01T07:40:49;21.20;99.90
57552;DHT22;43379;48.160;14.036;2023-08-01T07:43:15;21.10;99.90
57552;DHT22;43379;48.160;14.036;2023-08-01T07:45:40;21.20;99.90
57552;DHT22;43379;48.160;14.036;2023-08-01T07:48:06;21.10;99.90
57552;DHT22;43379;48.160;14.036;2023-08-01T07:50:32;21.20;99.90
57552;DHT22;43379;48.160;14.036;2023-08-01T07:52:58;21.20;99.90
57552;DHT22;43379;48.160;14.036;2023-08-01T07:55:24;21.20;99.90
57552;DHT22;43379;48.160;14.036;2023-08-01T07:57:50;21.20;99.90
57552;DHT22;43379;48.160;14.036;2023-08-01T08:00:16;21.20;99.90
57552;DHT22;43379;48.160;14.036;2023-08-01T08:02:42;21.30;99.90
57552;DHT22;43379;48.160;14.036;2023-08-01T08:05:09;21.30;99.90
57552;DHT22;43379;48.160;14.036;2023-08-01T08:07:35;21.20;99.90
57552;DHT22;43379;48.160;14.036;2023-08-01T08:10:01;21.20;99.90
57552;DHT22;43379;48.160;14.036;2023-08-01T08:12:27;21.20;99.90
57552;DHT22;43379;48.160;14.036;2023-08-01T08:14:52;21.20;99.90
57552;DHT22;43379;48.160;14.036;2023-08-01T08:17:18;21.20;99.90
57552;DHT22;43379;48.160;14.036;2023-08-01T08:19:44;21.20;99.90
57552;DHT22;43379;48.160;14.036;2023-08-01T08:22:09;21.20;99.90
57552;DHT22;43379;48.160;14.036;2023-08-01T08:24:35;21.20;99.90
57552;DHT22;43379;48.160;14.036;2023-08-01T08:27:01;21.20;99.90
57552;DHT22;43379;48.160;14.036;2023-08-01T08:29:26;21.20;99.90
57552;DHT22;43379;48.160;14.036;2023-08-01T08:31:52;21.20;99.90
57552;DHT22;43379;48.160;14.036;2023-08-01T08:34:18;21.20;99.90
57552;DHT22;43379;48.160;14.036;2023-08-01T08:36:44;21.10;99.90
57552;DHT22;43379;48.160;14.036;2023-08-01T08:39:09;21.10;99.90
57552;DHT22;43379;48.160;14.036;2023-08-01T08:41:43;21.10;99.90
57552;DHT22;43379;48.160;14.036;2023-08-01T08:44:10;21.10;99.90
57552;DHT22;43379;48.160;14.036;2023-08-01T08:46:42;21.10;99.90
57552;DHT22;43379;48.160;14.036;2023-08-01T08:49:08;21.10;99.90
57552;DHT22;43379;48.160;14.036;2023-08-01T08:51:36;21.00;99.90
57552;DHT22;43379;48.160;14.036;2023-08-01T08:54:03;21.00;99.90
57552;DHT22;43379;48.160;14.036;2023-08-01T08:56:30;20.90;99.90
57552;DHT22;43379;48.160;14.036;2023-08-01T08:58:56;20.80;99.90
57552;DHT22;43379;48.160;14.036;2023-08-01T09:01:22;20.80;99.90
57552;DHT22;43379;48.160;14.036;2023-08-01T09:03:48;20.80;99.90
57552;DHT22;43379;48.160;14.036;2023-08-01T09:06:18;20.80;99.90
57552;DHT22;43379;48.160;14.036;2023-08-01T09:09:06;20.80;99.90
57552;DHT22;43379;48.160;14.036;2023-08-01T09:11:48;20.80;99.90
57552;DHT22;43379;48.160;14.036;2023-08-01T09:14:14;20.80;99.90
57552;DHT22;43379;48.160;14.036;2023-08-01T09:16:41;20.80;99.90
57552;DHT22;43379;48.160;14.036;2023-08-01T09:19:07;20.80;99.90
57552;DHT22;43379;48.160;14.036;2023-08-01T09:21:34;20.80;99.90
57552;DHT22;43379;48.160;14.036;2023-08-01T09:24:14;20.80;99.90
57552;DHT22;43379;48.160;14.036;2023-08-01T09:26:40;20.80;99.90
57552;DHT22;43379;48.160;14.036;2023-08-01T09:29:06;20.80;99.90
57552;DHT22;43379;48.160;14.036;2023-08-01T09:31:34;20.80;99.90
57552;DHT22;43379;48.160;14.036;2023-08-01T09:34:01;20.80;99.90
57552;DHT22;43379;48.160;14.036;2023-08-01T09:36:29;20.70;99.90
57552;DHT22;43379;48.160;14.036;2023-08-01T09:39:00;20.70;99.90
57552;DHT22;43379;48.160;14.036;2023-08-01T09:41:26;20.60;99.90
57552;DHT22;43379;48.160;14.036;2023-08-01T09:43:52;20.70;99.90
57552;DHT22;43379;48.160;14.036;2023-08-01T09:46:18;20.70;99.90
57552;DHT22;43379;48.160;14.036;2023-08-01T09:48:43;20.60;99.90
57552;DHT22;43379;48.160;14.036;2023-08-01T09:51:13;20.60;99.90
57552;DHT22;43379;48.160;14.036;2023-08-01T09:53:56;20.50;99.90
57552;DHT22;43379;48.160;14.036;2023-08-01T09:56:23;20.50;99.90
57552;DHT22;43379;48.160;14.036;2023-08-01T09:58:50;20.50;99.90
57552;DHT22;43379;48.160;14.036;2023-08-01T10:01:18;20.50;99.90
57552;DHT22;43379;48.160;14.036;2023-08-01T10:03:49;20.50;99.90
57552;DHT22;43379;48.160;14.036;2023-08-01T10:06:22;20.50;99.90
57552;DHT22;43379;48.160;14.036;2023-08-01T10:08:51;20.60;99.90
57552;DHT22;43379;48.160;14.036;2023-08-01T10:11:19;20.50;99.90
57552;DHT22;43379;48.160;14.036;2023-08-01T10:13:45;20.50;99.90
57552;DHT22;43379;48.160;14.036;2023-08-01T10:16:12;20.60;99.90
57552;DHT22;43379;48.160;14.036;2023-08-01T10:18:38;20.50;99.90
57552;DHT22;43379;48.160;14.036;2023-08-01T10:21:06;20.60;99.90
57552;DHT22;43379;48.160;14.036;2023-08-01T10:23:35;20.60;99.90
57552;DHT22;43379;48.160;14.036;2023-08-01T10:26:04;20.70;99.90
57552;DHT22;43379;48.160;14.036;2023-08-01T10:28:32;20.70;99.90
57552;DHT22;43379;48.160;14.036;2023-08-01T10:31:11;20.70;99.90
57552;DHT22;43379;48.160;14.036;2023-08-01T10:33:39;20.80;99.90
57552;DHT22;43379;48.160;14.036;2023-08-01T10:36:18;20.70;99.90
57552;DHT22;43379;48.160;14.036;2023-08-01T10:41:25;20.60;99.90
57552;DHT22;43379;48.160;14.036;2023-08-01T10:43:51;20.70;99.90
57552;DHT22;43379;48.160;14.036;2023-08-01T10:46:16;20.70;99.90
57552;DHT22;43379;48.160;14.036;2023-08-01T10:48:50;20.70;99.90
57552;DHT22;43379;48.160;14.036;2023-08-01T10:51:16;20.70;99.90
57552;DHT22;43379;48.160;14.036;2023-08-01T10:53:42;20.70;99.90
57552;DHT22;43379;48.160;14.036;2023-08-01T10:56:07;20.80;99.90
57552;DHT22;43379;48.160;14.036;2023-08-01T10:58:34;20.80;99.90
57552;DHT22;43379;48.160;14.036;2023-08-01T11:01:00;20.90;99.90
57552;DHT22;43379;48.160;14.036;2023-08-01T11:03:39;20.90;99.90
57552;DHT22;43379;48.160;14.036;2023-08-01T11:06:05;21.00;99.90
57552;DHT22;43379;48.160;14.036;2023-08-01T11:08:38;21.00;99.90
57552;DHT22;43379;48.160;14.036;2023-08-01T11:11:10;21.10;99.90
57552;DHT22;43379;48.160;14.036;2023-08-01T11:13:36;21.10;99.90
57552;DHT22;43379;48.160;14.036;2023-08-01T11:16:06;21.30;99.90
57552;DHT22;43379;48.160;14.036;2023-08-01T11:18:44;21.40;99.90
57552;DHT22;43379;48.160;14.036;2023-08-01T11:21:10;21.40;99.90
57552;DHT22;43379;48.160;14.036;2023-08-01T11:23:36;21.50;99.90
57552;DHT22;43379;48.160;14.036;2023-08-01T11:26:09;21.40;99.90
57552;DHT22;43379;48.160;14.036;2023-08-01T11:28:35;21.50;99.90
57552;DHT22;43379;48.160;14.036;2023-08-01T11:31:01;21.50;99.90
57552;DHT22;43379;48.160;14.036;2023-08-01T11:33:26;21.60;99.90
57552;DHT22;43379;48.160;14.036;2023-08-01T11:35:53;21.60;99.90
57552;DHT22;43379;48.160;14.036;2023-08-01T11:38:23;21.60;99.90
57552;DHT22;43379;48.160;14.036;2023-08-01T11:40:51;21.60;99.90
57552;DHT22;43379;48.160;14.036;2023-08-01T11:43:17;21.60;99.90
57552;DHT22;43379;48.160;14.036;2023-08-01T11:45:54;21.70;99.90
57552;DHT22;43379;48.160;14.036;2023-08-01T11:48:21;21.70;99.90
57552;DHT22;43379;48.160;14.036;2023-08-01T11:50:48;21.70;99.90
57552;DHT22;43379;48.160;14.036;2023-08-01T11:53:19;21.60;99.90
57552;DHT22;43379;48.160;14.036;2023-08-01T11:55:44;21.70;99.90
57552;DHT22;43379;48.160;14.036;2023-08-01T11:58:10;21.60;99.90
57552;DHT22;43379;48.160;14.036;2023-08-01T12:00:36;21.60;99.90
57552;DHT22;43379;48.160;14.036;2023-08-01T12:03:06;21.50;99.90
57552;DHT22;43379;48.160;14.036;2023-08-01T12:05:33;21.50;99.90
57552;DHT22;43379;48.160;14.036;2023-08-01T12:08:11;21.50;99.90
57552;DHT22;43379;48.160;14.036;2023-08-01T12:10:39;21.50;99.90
57552;DHT22;43379;48.160;14.036;2023-08-01T12:13:05;21.50;99.90
57552;DHT22;43379;48.160;14.036;2023-08-01T12:15:31;21.40;99.90
57552;DHT22;43379;48.160;14.036;2023-08-01T12:17:57;21.40;99.90
57552;DHT22;43379;48.160;14.036;2023-08-01T12:20:22;21.40;99.90
57552;DHT22;43379;48.160;14.036;2023-08-01T12:22:48;21.40;99.90
57552;DHT22;43379;48.160;14.036;2023-08-01T12:25:14;21.40;99.90
57552;DHT22;43379;48.160;14.036;2023-08-01T12:27:39;21.40;99.90
57552;DHT22;43379;48.160;14.036;2023-08-01T12:30:05;21.40;99.90
57552;DHT22;43379;48.160;14.036;2023-08-01T12:32:31;21.40;99.90
57552;DHT22;43379;48.160;14.036;2023-08-01T12:34:57;21.40;99.90
57552;DHT22;43379;48.160;14.036;2023-08-01T12:37:22;21.40;99.90
57552;DHT22;43379;48.160;14.036;2023-08-01T12:39:48;21.40;99.90
57552;DHT22;43379;48.160;14.036;2023-08-01T12:42:13;21.40;99.90
57552;DHT22;43379;48.160;14.036;2023-08-01T12:44:39;21.40;99.90
57552;DHT22;43379;48.160;14.036;2023-08-01T12:47:05;21.30;99.90
57552;DHT22;43379;48.160;14.036;2023-08-01T12:49:33;21.30;99.90
57552;DHT22;43379;48.160;14.036;2023-08-01T12:51:58;21.40;99.90
57552;DHT22;43379;48.160;14.036;2023-08-01T12:54:24;21.40;99.90
57552;DHT22;43379;48.160;14.036;2023-08-01T12:56:49;21.40;99.90
57552;DHT22;43379;48.160;14.036;2023-08-01T12:59:15;21.40;99.90
57552;DHT22;43379;48.160;14.036;2023-08-01T13:01:41;21.40;99.90
57552;DHT22;43379;48.160;14.036;2023-08-01T13:04:06;21.40;99.90
57552;DHT22;43379;48.160;14.036;2023-08-01T13:06:32;21.40;99.90
57552;DHT22;43379;48.160;14.036;2023-08-01T13:08:57;21.40;99.90
57552;DHT22;43379;48.160;14.036;2023-08-01T13:11:24;21.40;99.90
57552;DHT22;43379;48.160;14.036;2023-08-01T13:13:49;21.30;99.90
57552;DHT22;43379;48.160;14.036;2023-08-01T13:16:15;21.30;99.90
57552;DHT22;43379;48.160;14.036;2023-08-01T13:18:41;21.20;99.90
57552;DHT22;43379;48.160;14.036;2023-08-01T13:21:09;21.20;99.90
57552;DHT22;43379;48.160;14.036;2023-08-01T13:23:36;21.20;99.90
57552;DHT22;43379;48.160;14.036;2023-08-01T13:26:02;21.20;99.90
57552;DHT22;43379;48.160;14.036;2023-08-01T13:28:27;21.10;99.90
57552;DHT22;43379;48.160;14.036;2023-08-01T13:30:53;21.10;99.90
57552;DHT22;43379;48.160;14.036;2023-08-01T13:33:19;21.10;99.90
57552;DHT22;43379;48.160;14.036;2023-08-01T13:35:44;21.10;99.90
57552;DHT22;43379;48.160;14.036;2023-08-01T13:38:10;21.10;99.90
57552;DHT22;43379;48.160;14.036;2023-08-01T13:40:36;21.10;99.90
57552;DHT22;43379;48.160;14.036;2023-08-01T13:43:01;21.20;99.90
57552;DHT22;43379;48.160;14.036;2023-08-01T13:45:30;21.20;99.90
57552;DHT22;43379;48.160;14.036;2023-08-01T13:47:57;21.20;99.90
57552;DHT22;43379;48.160;14.036;2023-08-01T13:50:22;21.20;99.90
57552;DHT22;43379;48.160;14.036;2023-08-01T13:52:48;21.20;99.90
57552;DHT22;43379;48.160;14.036;2023-08-01T13:55:13;21.20;99.90
57552;DHT22;43379;48.160;14.036;2023-08-01T13:57:42;21.20;99.90
57552;DHT22;43379;48.160;14.036;2023-08-01T14:00:08;21.30;99.90
57552;DHT22;43379;48.160;14.036;2023-08-01T14:02:34;21.40;99.90
57552;DHT22;43379;48.160;14.036;2023-08-01T14:05:01;21.40;99.90
57552;DHT22;43379;48.160;14.036;2023-08-01T14:07:26;21.50;99.90
57552;DHT22;43379;48.160;14.036;2023-08-01T14:09:52;21.50;99.90
57552;DHT22;43379;48.160;14.036;2023-08-01T14:12:18;21.60;99.90
57552;DHT22;43379;48.160;14.036;2023-08-01T14:14:44;21.60;99.90
57552;DHT22;43379;48.160;14.036;2023-08-01T14:17:10;21.70;99.90
57552;DHT22;43379;48.160;14.036;2023-08-01T14:19:36;21.70;99.90
57552;DHT22;43379;48.160;14.036;2023-08-01T14:22:01;21.80;99.90
57552;DHT22;43379;48.160;14.036;2023-08-01T14:24:28;21.90;99.90
57552;DHT22;43379;48.160;14.036;2023-08-01T14:26:53;21.90;99.90
57552;DHT22;43379;48.160;14.036;2023-08-01T14:29:19;21.90;99.90
57552;DHT22;43379;48.160;14.036;2023-08-01T14:31:51;22.00;99.90
57552;DHT22;43379;48.160;14.036;2023-08-01T14:34:17;21.90;99.90
57552;DHT22;43379;48.160;14.036;2023-08-01T14:36:42;21.90;99.90
57552;DHT22;43379;48.160;14.036;2023-08-01T14:39:08;21.80;99.90
57552;DHT22;43379;48.160;14.036;2023-08-01T14:41:33;21.80;99.90
57552;DHT22;43379;48.160;14.036;2023-08-01T14:43:59;21.80;99.90
57552;DHT22;43379;48.160;14.036;2023-08-01T14:46:25;21.80;99.90
57552;DHT22;43379;48.160;14.036;2023-08-01T14:48:51;21.70;99.90
57552;DHT22;43379;48.160;14.036;2023-08-01T14:51:17;21.70;99.90
57552;DHT22;43379;48.160;14.036;2023-08-01T14:53:42;21.70;99.90
57552;DHT22;43379;48.160;14.036;2023-08-01T14:56:08;21.70;99.90
57552;DHT22;43379;48.160;14.036;2023-08-01T14:58:34;21.70;99.90
57552;DHT22;43379;48.160;14.036;2023-08-01T15:01:16;21.60;99.90
57552;DHT22;43379;48.160;14.036;2023-08-01T15:03:44;21.60;99.90
57552;DHT22;43379;48.160;14.036;2023-08-01T15:06:09;21.50;99.90
57552;DHT22;43379;48.160;14.036;2023-08-01T15:08:37;21.60;99.90
57552;DHT22;43379;48.160;14.036;2023-08-01T15:11:04;21.60;99.90
57552;DHT22;43379;48.160;14.036;2023-08-01T15:13:30;21.60;99.90